Time;durP1;ratioP1;P1;durP2;ratioP2;P2;SDS_P1;SDS_P2;PMS_P1;PMS_P2;Temp;Humidity;BMP_temperature;BMP_pressure;BME280_temperature;BME280_humidity;BME280_pressure;Samples;Min_cycle;Max_cycle;Signal;HPM_P1;HPM_P2
2022/07/13 00:00:21;;;;;;;4.72;4.05;;;;;;;;;;5054247;28;20116;-76
2022/07/13 00:02:47;;;;;;;6.57;4.18;;;;;;;;;;5063669;28;20036;-75
2022/07/13 00:05:13;;;;;;;4.20;3.90;;;;;;;;;;5054700;28;20408;-75
2022/07/13 00:07:39;;;;;;;6.30;3.80;;;;;;;;;;5055578;28;20016;-75
2022/07/13 00:10:06;;;;;;;4.97;4.10;;;;;;;;;;5060248;28;20400;-76
2022/07/13 00:12:32;;;;;;;4.20;3.80;;;;;;;;;;5057714;28;20020;-75
2022/07/13 00:14:58;;;;;;;5.07;4.32;;;;;;;;;;5054346;28;20082;-76
2022/07/13 00:17:24;;;;;;;4.82;4.38;;;;;;;;;;5057874;28;20032;-75
2022/07/13 00:19:50;;;;;;;4.53;4.13;;;;;;;;;;5060030;28;20036;-76
2022/07/13 00:22:17;;;;;;;7.28;4.50;;;;;;;;;;5057859;28;20025;-75
2022/07/13 00:24:43;;;;;;;6.05;4.25;;;;;;;;;;5057408;28;20020;-76
2022/07/13 00:27:09;;;;;;;4.70;4.20;;;;;;;;;;5062691;28;20369;-76
2022/07/13 00:29:35;;;;;;;4.05;3.63;;;;;;;;;;5059355;28;20028;-75
2022/07/13 00:32:01;;;;;;;4.22;3.83;;;;;;;;;;5059404;28;20029;-76
2022/07/13 00:34:30;;;;;;;4.15;3.75;;;;;;;;;;5053810;28;20038;-76
2022/07/13 00:36:56;;;;;;;6.47;4.60;;;;;;;;;;5059817;28;20448;-75
2022/07/13 00:39:23;;;;;;;6.25;4.38;;;;;;;;;;5050258;28;20041;-76
2022/07/13 00:41:49;;;;;;;4.43;4.03;;;;;;;;;;5057276;28;20036;-76
2022/07/13 00:44:16;;;;;;;4.25;3.88;;;;;;;;;;5062457;28;20712;-75
2022/07/13 00:46:43;;;;;;;4.50;3.80;;;;;;;;;;5059715;28;20032;-76
2022/07/13 00:49:11;;;;;;;3.80;3.40;;;;;;;;;;5059418;28;20017;-76
2022/07/13 00:51:37;;;;;;;3.83;3.10;;;;;;;;;;5059195;28;20456;-76
2022/07/13 00:54:03;;;;;;;4.03;3.63;;;;;;;;;;5062603;28;20078;-75
2022/07/13 00:56:30;;;;;;;4.63;3.95;;;;;;;;;;5060504;28;20107;-76
2022/07/13 00:58:59;;;;;;;4.93;3.70;;;;;;;;;;5061867;28;20036;-76
2022/07/13 01:01:26;;;;;;;4.22;3.85;;;;;;;;;;5064005;28;20078;-75
2022/07/13 01:03:52;;;;;;;4.63;4.20;;;;;;;;;;5057508;28;20047;-75
2022/07/13 01:06:19;;;;;;;4.20;3.80;;;;;;;;;;5058916;28;20471;-76
2022/07/13 01:08:46;;;;;;;3.80;3.50;;;;;;;;;;5053876;28;20550;-76
2022/07/13 01:11:12;;;;;;;6.97;3.90;;;;;;;;;;5054066;28;20091;-76
2022/07/13 01:13:39;;;;;;;4.32;4.00;;;;;;;;;;5056530;28;20021;-75
2022/07/13 01:16:05;;;;;;;4.30;3.90;;;;;;;;;;5054801;28;20071;-75
2022/07/13 01:18:32;;;;;;;4.45;4.05;;;;;;;;;;5056011;28;20044;-75
2022/07/13 01:20:58;;;;;;;5.20;4.13;;;;;;;;;;5058284;28;20025;-76
2022/07/13 01:23:25;;;;;;;4.07;3.67;;;;;;;;;;5057242;28;20518;-76
2022/07/13 01:25:55;;;;;;;4.35;3.95;;;;;;;;;;5059090;28;20071;-76
2022/07/13 01:28:22;;;;;;;6.22;3.97;;;;;;;;;;5055972;28;20093;-76
2022/07/13 01:30:48;;;;;;;5.97;4.30;;;;;;;;;;5061524;28;20034;-76
2022/07/13 01:33:14;;;;;;;4.30;3.90;;;;;;;;;;5060581;28;20037;-76
2022/07/13 01:35:40;;;;;;;5.60;4.18;;;;;;;;;;5059483;28;20153;-76
2022/07/13 01:38:06;;;;;;;9.82;4.53;;;;;;;;;;5056885;28;20086;-76
2022/07/13 01:40:32;;;;;;;7.07;4.50;;;;;;;;;;5055395;28;20037;-76
2022/07/13 01:42:58;;;;;;;5.78;4.75;;;;;;;;;;5057704;28;20566;-75
2022/07/13 01:45:25;;;;;;;5.03;4.53;;;;;;;;;;5060273;28;20480;-76
2022/07/13 01:47:52;;;;;;;4.55;4.10;;;;;;;;;;5056744;28;20071;-76
2022/07/13 01:50:19;;;;;;;6.32;4.40;;;;;;;;;;5057819;28;20029;-76
2022/07/13 01:52:45;;;;;;;7.45;4.35;;;;;;;;;;5058862;28;20127;-76
2022/07/13 01:55:12;;;;;;;4.50;3.85;;;;;;;;;;5064027;28;20736;-76
2022/07/13 01:57:38;;;;;;;3.83;3.42;;;;;;;;;;5065427;28;20034;-76
2022/07/13 02:00:08;;;;;;;4.70;3.47;;;;;;;;;;5060525;28;20139;-76
2022/07/13 02:02:34;;;;;;;4.70;3.97;;;;;;;;;;5056404;28;20056;-76
2022/07/13 02:05:00;;;;;;;4.18;3.47;;;;;;;;;;5061219;28;20082;-75
2022/07/13 02:07:26;;;;;;;4.55;3.58;;;;;;;;;;5057461;28;20141;-75
2022/07/13 02:09:52;;;;;;;4.43;3.70;;;;;;;;;;5063735;28;20500;-75
2022/07/13 02:12:19;;;;;;;6.30;3.65;;;;;;;;;;5056201;28;20059;-75
2022/07/13 02:14:46;;;;;;;3.88;3.58;;;;;;;;;;5063103;28;20074;-76
2022/07/13 02:17:12;;;;;;;5.15;4.10;;;;;;;;;;5066667;28;20033;-76
2022/07/13 02:19:38;;;;;;;7.30;3.88;;;;;;;;;;5063272;28;20511;-76
2022/07/13 02:22:04;;;;;;;3.75;3.22;;;;;;;;;;5060750;28;20112;-75
2022/07/13 02:24:30;;;;;;;4.53;3.63;;;;;;;;;;5062556;28;20058;-76
2022/07/13 02:26:57;;;;;;;5.93;3.60;;;;;;;;;;5061831;28;20500;-76
2022/07/13 02:29:23;;;;;;;6.40;4.13;;;;;;;;;;5065861;28;20073;-76
2022/07/13 02:31:49;;;;;;;3.95;3.55;;;;;;;;;;5065270;28;20021;-76
2022/07/13 02:34:15;;;;;;;5.07;3.78;;;;;;;;;;5066534;28;20028;-75
2022/07/13 02:36:41;;;;;;;4.20;3.80;;;;;;;;;;5058514;28;20351;-75
2022/07/13 02:39:07;;;;;;;4.85;4.00;;;;;;;;;;5063140;28;20667;-76
2022/07/13 02:41:33;;;;;;;5.53;4.00;;;;;;;;;;5055402;28;20029;-76
2022/07/13 02:43:59;;;;;;;4.45;3.88;;;;;;;;;;5063277;28;20086;-75
2022/07/13 02:46:25;;;;;;;7.28;3.83;;;;;;;;;;5059338;28;20038;-75
2022/07/13 02:48:52;;;;;;;4.63;3.95;;;;;;;;;;5059423;28;20020;-76
2022/07/13 02:51:18;;;;;;;4.80;4.10;;;;;;;;;;5062559;28;20040;-76
2022/07/13 02:53:44;;;;;;;5.20;3.90;;;;;;;;;;5060735;28;20041;-76
2022/07/13 02:56:10;;;;;;;5.45;4.18;;;;;;;;;;5058983;28;20024;-76
2022/07/13 02:58:36;;;;;;;4.10;3.80;;;;;;;;;;5060661;28;20045;-76
2022/07/13 03:01:02;;;;;;;5.82;4.25;;;;;;;;;;5062985;28;20025;-76
2022/07/13 03:03:28;;;;;;;4.43;4.03;;;;;;;;;;5053560;28;20723;-75
2022/07/13 03:05:57;;;;;;;7.47;4.20;;;;;;;;;;5057892;28;20025;-76
2022/07/13 03:08:23;;;;;;;6.43;4.50;;;;;;;;;;5047316;28;20043;-75
2022/07/13 03:10:50;;;;;;;6.45;4.35;;;;;;;;;;5052219;28;20070;-76
2022/07/13 03:13:16;;;;;;;5.40;4.43;;;;;;;;;;5050995;28;20496;-76
2022/07/13 03:15:42;;;;;;;5.05;4.18;;;;;;;;;;5051336;28;20095;-76
2022/07/13 03:18:08;;;;;;;4.60;4.20;;;;;;;;;;5048189;28;20041;-76
2022/07/13 03:20:34;;;;;;;4.35;3.95;;;;;;;;;;5046420;28;20024;-76
2022/07/13 03:23:01;;;;;;;4.65;4.10;;;;;;;;;;5043902;28;20037;-76
2022/07/13 03:25:27;;;;;;;5.47;4.30;;;;;;;;;;5048751;28;20326;-76
2022/07/13 03:27:53;;;;;;;10.88;4.30;;;;;;;;;;5046474;28;20481;-76
2022/07/13 03:30:19;;;;;;;6.20;4.30;;;;;;;;;;5054242;28;20056;-76
2022/07/13 03:32:45;;;;;;;4.63;4.07;;;;;;;;;;5042498;28;20036;-75
2022/07/13 03:35:12;;;;;;;4.97;3.70;;;;;;;;;;5045328;28;20064;-76
2022/07/13 03:37:38;;;;;;;4.50;4.10;;;;;;;;;;5041061;28;20435;-75
2022/07/13 03:40:05;;;;;;;4.55;4.15;;;;;;;;;;5042039;28;20450;-76
2022/07/13 03:42:31;;;;;;;5.53;4.47;;;;;;;;;;5050563;28;20494;-76
2022/07/13 03:44:58;;;;;;;8.02;4.43;;;;;;;;;;5049034;28;20321;-76
2022/07/13 03:47:24;;;;;;;4.72;4.25;;;;;;;;;;5049184;28;20434;-76
2022/07/13 03:49:50;;;;;;;5.25;4.80;;;;;;;;;;5049095;28;20243;-76
2022/07/13 03:52:16;;;;;;;6.55;4.47;;;;;;;;;;5044830;28;20288;-75
2022/07/13 03:54:42;;;;;;;6.40;4.60;;;;;;;;;;5047203;28;20198;-75
2022/07/13 03:57:08;;;;;;;4.97;4.32;;;;;;;;;;5042186;28;20048;-76
2022/07/13 03:59:35;;;;;;;6.03;4.65;;;;;;;;;;5047295;28;20047;-76
2022/07/13 04:02:01;;;;;;;5.85;4.95;;;;;;;;;;5051274;28;20028;-76
2022/07/13 04:04:27;;;;;;;5.63;4.30;;;;;;;;;;5044528;28;20033;-76
2022/07/13 04:06:53;;;;;;;4.63;4.18;;;;;;;;;;5044571;28;20029;-75
2022/07/13 04:09:20;;;;;;;5.57;4.78;;;;;;;;;;5042940;28;20471;-76
2022/07/13 04:11:48;;;;;;;5.15;4.75;;;;;;;;;;5053205;28;20483;-76
2022/07/13 04:14:14;;;;;;;6.25;4.50;;;;;;;;;;5035734;28;20078;-75
2022/07/13 04:16:40;;;;;;;5.28;4.78;;;;;;;;;;5048811;28;20175;-75
2022/07/13 04:19:06;;;;;;;5.50;4.90;;;;;;;;;;5043770;28;20036;-75
2022/07/13 04:21:32;;;;;;;6.40;4.93;;;;;;;;;;5041906;28;20194;-75
2022/07/13 04:23:59;;;;;;;6.30;4.50;;;;;;;;;;5037172;28;20053;-75
2022/07/13 04:26:25;;;;;;;6.07;4.72;;;;;;;;;;5050370;28;20036;-75
2022/07/13 04:28:51;;;;;;;12.43;5.65;;;;;;;;;;5044090;28;20079;-75
2022/07/13 04:31:18;;;;;;;5.68;5.05;;;;;;;;;;5048778;28;20055;-75
2022/07/13 04:33:44;;;;;;;11.35;4.95;;;;;;;;;;5053732;28;20381;-75
2022/07/13 04:36:10;;;;;;;9.02;5.13;;;;;;;;;;5038289;28;20028;-76
2022/07/13 04:38:36;;;;;;;6.43;5.40;;;;;;;;;;5051071;28;20036;-76
2022/07/13 04:41:02;;;;;;;9.15;5.13;;;;;;;;;;5043457;28;20189;-76
2022/07/13 04:43:28;;;;;;;10.32;5.53;;;;;;;;;;5045965;28;20044;-76
2022/07/13 04:45:54;;;;;;;7.72;5.10;;;;;;;;;;5053316;28;20051;-76
2022/07/13 04:48:20;;;;;;;7.15;4.93;;;;;;;;;;5044075;28;20021;-76
2022/07/13 04:50:46;;;;;;;9.55;5.82;;;;;;;;;;5036501;28;20488;-72
2022/07/13 04:53:13;;;;;;;10.13;5.63;;;;;;;;;;5039290;28;20110;-74
2022/07/13 04:55:39;;;;;;;6.35;4.97;;;;;;;;;;5043188;28;20032;-73
2022/07/13 04:58:07;;;;;;;6.90;5.22;;;;;;;;;;5048604;28;20056;-74
2022/07/13 05:00:33;;;;;;;9.63;5.00;;;;;;;;;;5039680;28;20029;-73
2022/07/13 05:02:59;;;;;;;5.05;4.43;;;;;;;;;;5040900;28;20044;-73
2022/07/13 05:05:28;;;;;;;5.60;4.95;;;;;;;;;;5046129;28;20029;-74
2022/07/13 05:07:54;;;;;;;8.57;5.15;;;;;;;;;;5039534;28;20602;-74
2022/07/13 05:10:21;;;;;;;6.68;4.90;;;;;;;;;;5043054;28;20017;-74
2022/07/13 05:12:47;;;;;;;5.32;4.75;;;;;;;;;;5046003;28;20206;-74
2022/07/13 05:15:13;;;;;;;5.30;4.53;;;;;;;;;;5048556;28;20079;-75
2022/07/13 05:17:39;;;;;;;7.95;4.38;;;;;;;;;;5045797;28;20095;-74
2022/07/13 05:20:05;;;;;;;9.40;4.10;;;;;;;;;;5051947;28;20032;-74
2022/07/13 05:22:32;;;;;;;7.95;4.60;;;;;;;;;;5043449;28;20071;-74
2022/07/13 05:24:59;;;;;;;5.43;4.32;;;;;;;;;;5050821;28;20047;-75
2022/07/13 05:27:25;;;;;;;5.78;4.10;;;;;;;;;;5043266;28;20052;-74
2022/07/13 05:29:51;;;;;;;4.75;3.90;;;;;;;;;;5050957;28;20029;-74
2022/07/13 05:32:18;;;;;;;5.63;4.47;;;;;;;;;;5042945;28;20038;-74
2022/07/13 05:34:44;;;;;;;4.80;4.30;;;;;;;;;;5044533;28;20476;-74
2022/07/13 05:37:10;;;;;;;5.20;4.38;;;;;;;;;;5056878;28;20103;-74
2022/07/13 05:39:37;;;;;;;6.03;4.10;;;;;;;;;;5052523;28;20033;-74
2022/07/13 05:42:03;;;;;;;4.97;3.95;;;;;;;;;;5058140;28;20588;-74
2022/07/13 05:44:29;;;;;;;6.53;4.20;;;;;;;;;;5044424;28;20025;-73
2022/07/13 05:46:57;;;;;;;7.28;4.38;;;;;;;;;;5046324;28;20597;-75
2022/07/13 05:49:23;;;;;;;7.90;4.60;;;;;;;;;;5050911;28;20036;-75
2022/07/13 05:51:49;;;;;;;6.10;4.40;;;;;;;;;;5044213;28;20017;-75
2022/07/13 05:54:16;;;;;;;4.50;4.10;;;;;;;;;;5044583;28;20688;-76
2022/07/13 05:56:42;;;;;;;4.70;4.22;;;;;;;;;;5047325;28;20032;-76
2022/07/13 05:59:08;;;;;;;5.25;4.60;;;;;;;;;;5043468;28;20037;-75
2022/07/13 06:01:34;;;;;;;7.05;4.50;;;;;;;;;;5044355;28;20028;-74
2022/07/13 06:04:00;;;;;;;5.53;4.10;;;;;;;;;;5049430;28;20029;-75
2022/07/13 06:06:27;;;;;;;4.13;3.80;;;;;;;;;;5051414;28;20044;-74
2022/07/13 06:08:54;;;;;;;4.50;3.60;;;;;;;;;;5042862;28;20087;-74
2022/07/13 06:11:20;;;;;;;5.18;3.90;;;;;;;;;;5058443;28;20027;-73
2022/07/13 06:13:46;;;;;;;8.55;4.40;;;;;;;;;;5044241;28;20425;-73
2022/07/13 06:16:12;;;;;;;7.63;4.22;;;;;;;;;;5049501;28;20025;-73
2022/07/13 06:18:39;;;;;;;5.22;4.20;;;;;;;;;;5042935;28;20044;-73
2022/07/13 06:21:05;;;;;;;7.53;4.38;;;;;;;;;;5044225;28;20087;-73
2022/07/13 06:23:31;;;;;;;4.85;4.30;;;;;;;;;;5056164;28;20035;-74
2022/07/13 06:25:59;;;;;;;4.80;4.13;;;;;;;;;;5046326;28;20042;-74
2022/07/13 06:28:25;;;;;;;6.22;4.75;;;;;;;;;;5049626;28;20032;-73
2022/07/13 06:30:51;;;;;;;4.97;4.50;;;;;;;;;;5045353;28;20394;-72
2022/07/13 06:33:17;;;;;;;4.68;4.05;;;;;;;;;;5049258;28;20048;-72
2022/07/13 06:35:43;;;;;;;5.38;4.88;;;;;;;;;;5049792;28;20044;-72
2022/07/13 06:38:09;;;;;;;5.78;4.30;;;;;;;;;;5051209;28;20657;-73
2022/07/13 06:40:36;;;;;;;4.82;4.30;;;;;;;;;;5046109;28;20036;-74
2022/07/13 06:43:02;;;;;;;5.50;4.30;;;;;;;;;;5052322;28;20025;-74
2022/07/13 06:45:29;;;;;;;4.90;4.32;;;;;;;;;;5054546;28;20086;-72
2022/07/13 06:47:55;;;;;;;5.60;3.83;;;;;;;;;;5053669;28;20656;-73
2022/07/13 06:50:21;;;;;;;4.60;4.20;;;;;;;;;;5051125;28;20035;-74
2022/07/13 06:52:48;;;;;;;4.55;4.00;;;;;;;;;;5048465;28;20051;-72
2022/07/13 06:55:14;;;;;;;5.22;3.88;;;;;;;;;;5050957;28;20074;-74
2022/07/13 06:57:41;;;;;;;7.47;4.03;;;;;;;;;;5052786;28;20021;-72
2022/07/13 07:00:08;;;;;;;4.22;3.80;;;;;;;;;;5053039;28;20032;-73
2022/07/13 07:02:36;;;;;;;3.85;3.55;;;;;;;;;;5046754;28;20028;-73
2022/07/13 07:05:02;;;;;;;3.67;3.38;;;;;;;;;;5050896;28;20431;-73
2022/07/13 07:07:28;;;;;;;3.63;3.33;;;;;;;;;;5048957;28;20024;-73
2022/07/13 07:09:54;;;;;;;3.40;3.10;;;;;;;;;;5048775;28;20086;-73
2022/07/13 07:12:20;;;;;;;3.28;3.08;;;;;;;;;;5047431;28;20033;-74
2022/07/13 07:14:47;;;;;;;4.20;3.25;;;;;;;;;;5041736;28;20104;-73
2022/07/13 07:17:13;;;;;;;4.20;3.25;;;;;;;;;;5044326;28;20516;-75
2022/07/13 07:19:39;;;;;;;3.72;3.30;;;;;;;;;;5043418;28;20090;-73
2022/07/13 07:22:05;;;;;;;4.07;3.30;;;;;;;;;;5049290;28;20021;-74
2022/07/13 07:24:31;;;;;;;3.40;3.10;;;;;;;;;;5046251;28;20028;-73
2022/07/13 07:26:58;;;;;;;4.22;3.08;;;;;;;;;;5056461;28;20054;-74
2022/07/13 07:29:24;;;;;;;3.58;2.58;;;;;;;;;;5045844;28;20039;-73
2022/07/13 07:31:50;;;;;;;3.70;2.85;;;;;;;;;;5048654;28;20461;-73
2022/07/13 07:34:16;;;;;;;2.95;2.75;;;;;;;;;;5055277;28;20035;-73
2022/07/13 07:36:43;;;;;;;3.83;2.85;;;;;;;;;;5056889;28;20047;-74
2022/07/13 07:39:09;;;;;;;3.67;2.75;;;;;;;;;;5049512;28;20040;-74
2022/07/13 07:41:35;;;;;;;3.50;2.80;;;;;;;;;;5050676;28;20021;-74
2022/07/13 07:44:01;;;;;;;2.90;2.60;;;;;;;;;;5041355;28;20029;-74
2022/07/13 07:46:28;;;;;;;3.85;3.00;;;;;;;;;;5041662;28;20037;-76
2022/07/13 07:48:56;;;;;;;4.25;3.20;;;;;;;;;;5047490;28;20111;-74
2022/07/13 07:51:22;;;;;;;4.57;2.97;;;;;;;;;;5049495;28;20120;-74
2022/07/13 07:53:48;;;;;;;3.60;3.30;;;;;;;;;;5051458;28;20274;-74
2022/07/13 07:56:14;;;;;;;4.45;3.25;;;;;;;;;;5046546;28;20029;-75
2022/07/13 07:58:40;;;;;;;4.65;3.28;;;;;;;;;;5043734;28;20131;-75
2022/07/13 08:01:07;;;;;;;5.38;2.70;;;;;;;;;;5050566;28;20044;-75
2022/07/13 08:03:33;;;;;;;6.07;3.10;;;;;;;;;;5039703;28;20082;-75
2022/07/13 08:05:59;;;;;;;3.42;3.13;;;;;;;;;;5055397;28;20036;-75
2022/07/13 08:08:26;;;;;;;3.35;3.13;;;;;;;;;;5050526;28;20024;-75
2022/07/13 08:10:54;;;;;;;3.47;2.65;;;;;;;;;;5052884;28;20020;-75
2022/07/13 08:13:20;;;;;;;4.35;2.97;;;;;;;;;;5045943;28;20093;-75
2022/07/13 08:15:47;;;;;;;5.45;3.30;;;;;;;;;;5048647;28;20025;-74
2022/07/13 08:18:13;;;;;;;2.90;2.70;;;;;;;;;;5047476;28;20119;-74
2022/07/13 08:20:39;;;;;;;2.67;2.47;;;;;;;;;;5057131;28;20032;-74
2022/07/13 08:23:50;;;;;;;2.80;2.38;;;;;;;;;;5042152;28;20025;-73
2022/07/13 08:25:51;;;;;;;3.05;2.80;;;;;;;;;;5045328;28;20037;-74
2022/07/13 08:28:18;;;;;;;3.50;2.60;;;;;;;;;;5046938;28;20017;-79
2022/07/13 08:30:44;;;;;;;3.22;2.65;;;;;;;;;;5044818;28;20044;-74
2022/07/13 08:33:11;;;;;;;8.13;3.00;;;;;;;;;;5049912;28;20028;-77
2022/07/13 08:38:40;;;;;;;2.97;2.67;;;;;;;;;;5047285;28;20098;-75
2022/07/13 08:41:06;;;;;;;3.85;2.80;;;;;;;;;;5046292;28;20021;-75
2022/07/13 08:43:35;;;;;;;4.00;3.20;;;;;;;;;;5046998;28;20021;-75
2022/07/13 08:46:06;;;;;;;4.57;2.65;;;;;;;;;;5047126;28;20024;-76
2022/07/13 08:48:32;;;;;;;;;;;;;;;;;;5043627;28;20024;-76
2022/07/13 08:50:59;;;;;;;3.08;2.80;;;;;;;;;;5044742;28;19995;-75
2022/07/13 08:53:25;;;;;;;3.58;2.67;;;;;;;;;;5047747;28;20110;-75
2022/07/13 08:55:52;;;;;;;7.85;3.00;;;;;;;;;;5047969;28;20057;-76
2022/07/13 08:58:18;;;;;;;2.80;2.60;;;;;;;;;;5046272;28;20024;-75
2022/07/13 09:00:44;;;;;;;2.97;2.67;;;;;;;;;;5049824;28;20361;-75
2022/07/13 09:03:10;;;;;;;3.33;2.92;;;;;;;;;;5058983;28;20032;-75
2022/07/13 09:05:36;;;;;;;3.22;2.55;;;;;;;;;;5053135;28;20029;-76
2022/07/13 09:08:05;;;;;;;3.58;2.47;;;;;;;;;;5046229;28;20031;-75
2022/07/13 09:10:31;;;;;;;5.55;2.75;;;;;;;;;;5043949;28;20519;-75
2022/07/13 09:12:58;;;;;;;3.13;2.88;;;;;;;;;;5047107;28;20146;-76
2022/07/13 09:15:24;;;;;;;4.20;3.05;;;;;;;;;;5058514;28;20021;-75
2022/07/13 09:17:50;;;;;;;3.05;2.78;;;;;;;;;;5058982;28;20048;-75
2022/07/13 09:20:18;;;;;;;4.45;2.78;;;;;;;;;;5049059;28;20025;-70
2022/07/13 09:22:49;;;;;;;3.45;2.80;;;;;;;;;;5056202;28;20028;-73
2022/07/13 09:25:34;;;;;;;3.08;2.80;;;;;;;;;;5055295;28;20021;-73
2022/07/13 09:28:07;;;;;;;2.92;2.72;;;;;;;;;;5058922;28;20516;-76
2022/07/13 09:30:34;;;;;;;3.40;2.90;;;;;;;;;;5053706;28;20024;-75
2022/07/13 09:33:01;;;;;;;3.90;2.88;;;;;;;;;;5054640;28;20025;-70
2022/07/13 09:35:45;;;;;;;2.85;2.58;;;;;;;;;;5060254;28;20023;-71
2022/07/13 09:38:28;;;;;;;4.43;2.90;;;;;;;;;;5054195;28;20074;-70
2022/07/13 09:40:54;;;;;;;5.45;2.80;;;;;;;;;;5054559;28;20028;-69
2022/07/13 09:46:08;;;;;;;3.42;2.92;;;;;;;;;;5051144;28;20535;-74
2022/07/13 09:48:36;;;;;;;3.70;3.00;;;;;;;;;;5048576;28;20069;-75
2022/07/13 09:51:02;;;;;;;3.42;3.00;;;;;;;;;;5046142;28;20166;-74
2022/07/13 09:53:33;;;;;;;3.55;3.17;;;;;;;;;;5045220;28;20044;-73
2022/07/13 09:56:02;;;;;;;3.72;3.17;;;;;;;;;;5050482;28;20051;-73
2022/07/13 09:58:32;;;;;;;4.38;2.95;;;;;;;;;;5049840;28;20029;-73
2022/07/13 10:00:59;;;;;;;3.05;2.70;;;;;;;;;;5050497;28;20119;-73
2022/07/13 10:03:29;;;;;;;4.07;2.80;;;;;;;;;;5050751;28;20024;-73
2022/07/13 10:05:55;;;;;;;2.80;2.50;;;;;;;;;;5055647;28;20013;-74
2022/07/13 10:08:22;;;;;;;3.13;2.60;;;;;;;;;;5056698;28;20024;-73
2022/07/13 10:10:49;;;;;;;3.97;2.72;;;;;;;;;;5055474;28;20055;-75
2022/07/13 10:13:16;;;;;;;2.50;2.30;;;;;;;;;;5053449;28;20025;-73
2022/07/13 10:15:43;;;;;;;4.50;2.75;;;;;;;;;;5052801;28;20120;-74
2022/07/13 10:18:11;;;;;;;3.30;2.47;;;;;;;;;;5052939;28;20044;-73
2022/07/13 10:20:40;;;;;;;2.60;2.40;;;;;;;;;;5060412;28;20020;-74
2022/07/13 10:23:06;;;;;;;2.65;2.45;;;;;;;;;;5053377;28;20035;-74
2022/07/13 10:25:42;;;;;;;3.20;2.88;;;;;;;;;;5056906;28;20464;-73
2022/07/13 10:28:11;;;;;;;2.45;2.25;;;;;;;;;;5057670;28;20028;-74
2022/07/13 10:30:37;;;;;;;2.80;2.60;;;;;;;;;;5061533;28;20050;-73
2022/07/13 10:33:24;;;;;;;2.50;2.30;;;;;;;;;;5057699;28;20025;-73
2022/07/13 10:35:58;;;;;;;3.00;2.58;;;;;;;;;;5054313;28;20056;-74
2022/07/13 10:38:28;;;;;;;2.72;2.53;;;;;;;;;;5062033;28;20067;-74
2022/07/13 10:41:20;;;;;;;3.40;2.13;;;;;;;;;;5058791;28;20025;-73
2022/07/13 10:43:53;;;;;;;3.38;2.50;;;;;;;;;;5059343;28;20040;-74
2022/07/13 10:46:38;;;;;;;3.53;2.50;;;;;;;;;;5052965;28;20117;-73
2022/07/13 10:49:24;;;;;;;2.50;2.30;;;;;;;;;;5043535;28;20044;-74
2022/07/13 10:51:50;;;;;;;3.28;2.55;;;;;;;;;;5051606;28;20035;-74
2022/07/13 10:54:16;;;;;;;3.17;2.35;;;;;;;;;;5047261;28;20106;-74
2022/07/13 10:57:03;;;;;;;3.72;2.53;;;;;;;;;;5058481;28;20021;-74
2022/07/13 10:59:49;;;;;;;4.15;2.55;;;;;;;;;;5054511;28;20041;-71
2022/07/13 11:02:38;;;;;;;2.40;2.13;;;;;;;;;;5055270;28;20036;-72
2022/07/13 11:05:06;;;;;;;2.58;2.30;;;;;;;;;;5052211;28;20044;-72
2022/07/13 11:07:42;;;;;;;2.53;2.33;;;;;;;;;;5061839;28;20032;-71
2022/07/13 11:10:30;;;;;;;2.50;2.30;;;;;;;;;;5053363;28;20513;-72
2022/07/13 11:13:09;;;;;;;2.45;2.20;;;;;;;;;;5052704;28;20035;-72
2022/07/13 11:15:42;;;;;;;2.20;2.00;;;;;;;;;;5051969;28;20043;-72
2022/07/13 11:18:23;;;;;;;2.72;2.15;;;;;;;;;;5054900;28;20032;-72
2022/07/13 11:20:49;;;;;;;;;;;;;;;;;;5053350;28;20029;-72
2022/07/13 11:26:05;;;;;;;3.42;2.20;;;;;;;;;;5056666;28;20098;-72
2022/07/13 11:28:37;;;;;;;2.50;2.28;;;;;;;;;;5053406;28;20028;-72
2022/07/13 11:31:04;;;;;;;2.85;2.08;;;;;;;;;;5058833;28;20029;-72
2022/07/13 11:33:30;;;;;;;3.15;2.28;;;;;;;;;;5057310;28;20025;-72
2022/07/13 11:35:59;;;;;;;2.40;2.20;;;;;;;;;;5052575;28;20051;-73
2022/07/13 11:38:26;;;;;;;2.55;2.35;;;;;;;;;;5058783;28;20361;-72
2022/07/13 11:40:52;;;;;;;3.70;2.70;;;;;;;;;;5058119;28;20048;-73
2022/07/13 11:43:18;;;;;;;2.85;2.30;;;;;;;;;;5059969;28;20027;-73
2022/07/13 11:45:44;;;;;;;2.60;2.40;;;;;;;;;;5058896;28;20085;-73
2022/07/13 11:48:15;;;;;;;2.88;2.47;;;;;;;;;;5055576;28;20032;-73
2022/07/13 11:50:54;;;;;;;2.50;2.30;;;;;;;;;;5051883;28;20648;-73
2022/07/13 11:53:30;;;;;;;2.33;2.10;;;;;;;;;;5050161;28;20045;-73
2022/07/13 11:55:57;;;;;;;1.98;1.88;;;;;;;;;;5051288;28;20155;-73
2022/07/13 11:58:28;;;;;;;4.00;2.10;;;;;;;;;;5059369;28;20034;-72
2022/07/13 12:00:55;;;;;;;2.83;2.45;;;;;;;;;;5055777;28;20546;-72
2022/07/13 12:03:28;;;;;;;4.40;2.42;;;;;;;;;;5050624;28;20029;-72
2022/07/13 12:05:58;;;;;;;2.38;2.17;;;;;;;;;;5055699;28;20016;-72
2022/07/13 12:08:25;;;;;;;2.67;2.00;;;;;;;;;;5053089;28;20029;-73
2022/07/13 12:10:51;;;;;;;2.38;2.10;;;;;;;;;;5056495;28;20093;-72
2022/07/13 12:13:18;;;;;;;2.65;2.10;;;;;;;;;;5057182;28;20017;-72
2022/07/13 12:15:47;;;;;;;3.17;2.20;;;;;;;;;;5060382;28;20054;-73
2022/07/13 12:18:14;;;;;;;2.92;2.17;;;;;;;;;;5054885;28;20586;-72
2022/07/13 12:20:40;;;;;;;2.55;2.35;;;;;;;;;;5052713;28;20881;-72
2022/07/13 12:23:07;;;;;;;2.40;2.20;;;;;;;;;;5054563;28;20032;-72
2022/07/13 12:25:34;;;;;;;4.85;2.38;;;;;;;;;;5049527;28;20032;-72
2022/07/13 12:28:01;;;;;;;2.45;2.25;;;;;;;;;;5051132;28;20060;-73
2022/07/13 12:30:28;;;;;;;3.33;2.35;;;;;;;;;;5052282;28;20602;-72
2022/07/13 12:33:24;;;;;;;2.53;2.33;;;;;;;;;;5055800;28;20103;-72
2022/07/13 12:36:01;;;;;;;2.80;2.50;;;;;;;;;;5046880;28;20036;-72
2022/07/13 12:38:27;;;;;;;2.90;2.53;;;;;;;;;;5056761;28;20507;-72
2022/07/13 12:40:55;;;;;;;2.58;2.38;;;;;;;;;;5057186;28;20047;-72
2022/07/13 12:43:25;;;;;;;2.63;2.38;;;;;;;;;;5053704;28;20052;-72
2022/07/13 12:45:55;;;;;;;3.17;2.30;;;;;;;;;;5047666;28;20644;-71
2022/07/13 12:48:22;;;;;;;2.80;2.50;;;;;;;;;;5056865;28;20021;-72
2022/07/13 12:51:05;;;;;;;2.90;2.47;;;;;;;;;;5059064;28;20029;-72
2022/07/13 12:53:51;;;;;;;3.20;2.28;;;;;;;;;;5050324;28;20040;-72
2022/07/13 12:56:18;;;;;;;2.40;2.20;;;;;;;;;;5058773;28;20860;-71
2022/07/13 12:58:47;;;;;;;2.40;2.20;;;;;;;;;;5060181;28;20060;-72
2022/07/13 13:01:34;;;;;;;3.95;2.63;;;;;;;;;;5053047;28;20020;-72
2022/07/13 13:04:01;;;;;;;2.45;2.22;;;;;;;;;;5057136;28;20036;-71
2022/07/13 13:06:28;;;;;;;2.60;2.30;;;;;;;;;;5053282;28;20012;-71
2022/07/13 13:09:03;;;;;;;2.72;2.53;;;;;;;;;;5051938;28;20025;-71
2022/07/13 13:11:29;;;;;;;2.60;2.40;;;;;;;;;;5049319;28;20017;-72
2022/07/13 13:13:56;;;;;;;2.70;2.50;;;;;;;;;;5057472;28;20590;-72
2022/07/13 13:16:22;;;;;;;2.42;2.22;;;;;;;;;;5057070;28;20028;-72
2022/07/13 13:18:48;;;;;;;2.30;2.10;;;;;;;;;;5051913;28;20037;-72
2022/07/13 13:21:14;;;;;;;5.00;2.58;;;;;;;;;;5049661;28;20079;-71
2022/07/13 13:23:41;;;;;;;3.17;2.78;;;;;;;;;;5057843;28;20113;-71
2022/07/13 13:26:08;;;;;;;3.55;2.40;;;;;;;;;;5057130;28;20055;-72
2022/07/13 13:30:43;;;;;;;2.42;2.22;;;;;;;;;;5055279;28;20028;-72
2022/07/13 13:31:21;;;;;;;4.10;2.67;;;;;;;;;;5057064;28;20527;-71
2022/07/13 13:33:47;;;;;;;4.07;2.45;;;;;;;;;;5059829;28;20573;-72
2022/07/13 13:36:13;;;;;;;2.88;2.60;;;;;;;;;;5053631;28;20032;-72
2022/07/13 13:38:39;;;;;;;3.75;2.40;;;;;;;;;;5063247;28;20551;-72
2022/07/13 13:41:05;;;;;;;3.72;2.67;;;;;;;;;;5077070;28;20020;-72
2022/07/13 13:43:32;;;;;;;3.15;2.58;;;;;;;;;;5062176;28;20033;-72
2022/07/13 13:45:59;;;;;;;2.78;2.58;;;;;;;;;;5072172;28;20859;-71
2022/07/13 13:48:25;;;;;;;3.90;2.55;;;;;;;;;;5059608;28;20028;-72
2022/07/13 13:50:51;;;;;;;6.03;2.42;;;;;;;;;;5057591;28;20554;-72
2022/07/13 13:53:18;;;;;;;3.13;2.50;;;;;;;;;;5054215;28;20048;-72
2022/07/13 13:55:44;;;;;;;2.53;2.33;;;;;;;;;;5056635;28;20023;-72
2022/07/13 13:58:10;;;;;;;2.75;2.47;;;;;;;;;;5066879;28;20040;-72
2022/07/13 14:00:36;;;;;;;3.80;2.50;;;;;;;;;;5054119;28;20024;-72
2022/07/13 14:03:03;;;;;;;3.47;2.45;;;;;;;;;;5057066;28;20036;-71
2022/07/13 14:05:29;;;;;;;3.65;2.45;;;;;;;;;;5061503;28;20532;-72
2022/07/13 14:07:55;;;;;;;3.70;2.55;;;;;;;;;;5053797;28;20024;-71
2022/07/13 14:10:22;;;;;;;3.83;2.60;;;;;;;;;;5058731;28;20128;-72
2022/07/13 14:12:48;;;;;;;2.85;2.50;;;;;;;;;;5057355;28;20033;-71
2022/07/13 14:15:15;;;;;;;3.47;2.78;;;;;;;;;;5061220;28;20024;-72
2022/07/13 14:17:41;;;;;;;6.18;2.60;;;;;;;;;;5063316;28;20021;-71
2022/07/13 14:20:07;;;;;;;5.15;2.55;;;;;;;;;;5053442;28;20041;-71
2022/07/13 14:22:34;;;;;;;2.90;2.65;;;;;;;;;;5057801;28;20103;-72
2022/07/13 14:25:00;;;;;;;2.55;2.35;;;;;;;;;;5054691;28;20033;-72
2022/07/13 14:27:27;;;;;;;2.65;2.40;;;;;;;;;;5059756;28;20633;-72
2022/07/13 14:29:53;;;;;;;6.90;2.92;;;;;;;;;;5059067;28;20029;-72
2022/07/13 14:32:20;;;;;;;2.40;2.20;;;;;;;;;;5058086;28;20029;-72
2022/07/13 14:34:46;;;;;;;3.20;2.50;;;;;;;;;;5055996;28;20023;-72
2022/07/13 14:37:16;;;;;;;2.55;2.35;;;;;;;;;;5052870;28;20020;-72
2022/07/13 14:39:45;;;;;;;3.88;2.85;;;;;;;;;;5051422;28;20040;-72
2022/07/13 14:42:12;;;;;;;3.03;2.67;;;;;;;;;;5059538;28;20031;-71
2022/07/13 14:44:39;;;;;;;2.97;2.67;;;;;;;;;;5068052;28;20024;-72
2022/07/13 14:47:06;;;;;;;2.78;2.50;;;;;;;;;;5062808;28;20108;-72
2022/07/13 14:49:32;;;;;;;2.85;2.53;;;;;;;;;;5050661;28;20069;-71
2022/07/13 14:51:58;;;;;;;2.97;2.55;;;;;;;;;;5054781;28;20016;-72
2022/07/13 14:54:25;;;;;;;3.00;2.42;;;;;;;;;;5055804;28;20032;-72